sensor_id;sensor_type;location;lat;lon;timestamp;pressure;altitude;pressure_sealevel;temperature;humidity
75895;BME280;64573;50.328;15.014;2022-10-26T00:02:23;99173.22;;;5.06;92.69
75895;BME280;64573;50.328;15.014;2022-10-26T00:04:48;99178.41;;;5.17;92.63
75895;BME280;64573;50.328;15.014;2022-10-26T00:07:13;99178.56;;;5.16;93.04
75895;BME280;64573;50.328;15.014;2022-10-26T00:09:39;99177.00;;;5.13;92.95
75895;BME280;64573;50.328;15.014;2022-10-26T00:12:04;99180.66;;;5.22;93.06
75895;BME280;64573;50.328;15.014;2022-10-26T00:14:29;99182.88;;;5.17;92.77
75895;BME280;64573;50.328;15.014;2022-10-26T00:16:55;99182.59;;;5.20;92.89
75895;BME280;64573;50.328;15.014;2022-10-26T00:19:20;99182.88;;;5.17;92.86
75895;BME280;64573;50.328;15.014;2022-10-26T00:21:46;99184.13;;;5.13;93.11
75895;BME280;64573;50.328;15.014;2022-10-26T00:24:11;99185.25;;;5.10;93.22
75895;BME280;64573;50.328;15.014;2022-10-26T00:29:06;99180.47;;;5.33;93.13
75895;BME280;64573;50.328;15.014;2022-10-26T00:31:32;99188.16;;;5.46;93.11
75895;BME280;64573;50.328;15.014;2022-10-26T00:33:57;99173.81;;;5.57;93.17
75895;BME280;64573;50.328;15.014;2022-10-26T00:36:23;99176.63;;;5.55;92.92
75895;BME280;64573;50.328;15.014;2022-10-26T00:38:54;99187.91;;;5.30;93.18
75895;BME280;64573;50.328;15.014;2022-10-26T00:41:22;99183.47;;;5.01;92.91
75895;BME280;64573;50.328;15.014;2022-10-26T00:43:48;99179.13;;;5.00;93.09
75895;BME280;64573;50.328;15.014;2022-10-26T00:46:18;99184.56;;;5.08;93.08
75895;BME280;64573;50.328;15.014;2022-10-26T00:48:47;99185.97;;;5.03;93.10
75895;BME280;64573;50.328;15.014;2022-10-26T00:51:19;99186.69;;;4.95;92.97
75895;BME280;64573;50.328;15.014;2022-10-26T00:53:46;99181.06;;;4.98;93.23
75895;BME280;64573;50.328;15.014;2022-10-26T00:56:12;99189.47;;;4.93;93.24
75895;BME280;64573;50.328;15.014;2022-10-26T00:58:37;99186.81;;;4.74;93.18
75895;BME280;64573;50.328;15.014;2022-10-26T01:01:03;99192.69;;;4.68;93.11
75895;BME280;64573;50.328;15.014;2022-10-26T01:03:29;99184.56;;;4.60;92.77
75895;BME280;64573;50.328;15.014;2022-10-26T01:05:57;99195.03;;;4.61;93.16
75895;BME280;64573;50.328;15.014;2022-10-26T01:10:48;99199.13;;;4.75;93.53
75895;BME280;64573;50.328;15.014;2022-10-26T01:13:14;99201.47;;;4.59;93.39
75895;BME280;64573;50.328;15.014;2022-10-26T01:24:31;99208.47;;;4.60;93.14
75895;BME280;64573;50.328;15.014;2022-10-26T01:32:17;99200.50;;;4.50;93.31
75895;BME280;64573;50.328;15.014;2022-10-26T01:34:53;99194.06;;;4.62;93.30
75895;BME280;64573;50.328;15.014;2022-10-26T01:39:55;99191.13;;;4.85;92.96
75895;BME280;64573;50.328;15.014;2022-10-26T01:42:25;99195.06;;;5.00;93.31
75895;BME280;64573;50.328;15.014;2022-10-26T01:44:55;99187.38;;;4.97;93.51
75895;BME280;64573;50.328;15.014;2022-10-26T01:47:23;99188.19;;;4.97;93.50
75895;BME280;64573;50.328;15.014;2022-10-26T01:49:53;99183.16;;;4.85;93.52
75895;BME280;64573;50.328;15.014;2022-10-26T01:52:20;99183.88;;;4.77;93.50
75895;BME280;64573;50.328;15.014;2022-10-26T01:54:46;99188.06;;;4.80;93.40
75895;BME280;64573;50.328;15.014;2022-10-26T01:57:14;99193.94;;;4.83;93.25
75895;BME280;64573;50.328;15.014;2022-10-26T02:00:02;99189.75;;;4.81;93.07
75895;BME280;64573;50.328;15.014;2022-10-26T02:10:58;99187.31;;;4.49;93.17
75895;BME280;64573;50.328;15.014;2022-10-26T02:13:29;99192.50;;;4.40;93.22
75895;BME280;64573;50.328;15.014;2022-10-26T02:16:00;99189.72;;;4.42;93.09
75895;BME280;64573;50.328;15.014;2022-10-26T02:21:15;99185.78;;;4.36;93.15
75895;BME280;64573;50.328;15.014;2022-10-26T02:23:45;99185.66;;;4.38;93.42
75895;BME280;64573;50.328;15.014;2022-10-26T02:26:12;99186.34;;;4.40;93.53
75895;BME280;64573;50.328;15.014;2022-10-26T02:28:44;99183.28;;;4.35;93.12
75895;BME280;64573;50.328;15.014;2022-10-26T02:31:12;99188.31;;;4.38;93.35
75895;BME280;64573;50.328;15.014;2022-10-26T02:33:41;99184.13;;;4.35;93.52
75895;BME280;64573;50.328;15.014;2022-10-26T02:36:12;99188.31;;;4.38;93.44
75895;BME280;64573;50.328;15.014;2022-10-26T02:38:39;99182.41;;;4.34;93.15
75895;BME280;64573;50.328;15.014;2022-10-26T02:41:06;99180.63;;;4.35;93.60
75895;BME280;64573;50.328;15.014;2022-10-26T02:43:36;99177.25;;;4.33;93.66
75895;BME280;64573;50.328;15.014;2022-10-26T02:46:08;99177.69;;;4.38;93.46
75895;BME280;64573;50.328;15.014;2022-10-26T02:48:35;99185.94;;;4.35;93.49
75895;BME280;64573;50.328;15.014;2022-10-26T02:51:09;99180.56;;;4.25;93.80
75895;BME280;64573;50.328;15.014;2022-10-26T02:56:15;99174.13;;;4.18;93.88
75895;BME280;64573;50.328;15.014;2022-10-26T02:58:45;99179.59;;;4.26;93.93
75895;BME280;64573;50.328;15.014;2022-10-26T03:01:12;99180.34;;;4.38;93.81
75895;BME280;64573;50.328;15.014;2022-10-26T03:03:38;99167.06;;;4.38;93.40
75895;BME280;64573;50.328;15.014;2022-10-26T03:06:04;99178.66;;;4.47;93.79
75895;BME280;64573;50.328;15.014;2022-10-26T03:08:29;99176.44;;;4.42;93.74
75895;BME280;64573;50.328;15.014;2022-10-26T03:10:54;99179.06;;;4.32;93.32
75895;BME280;64573;50.328;15.014;2022-10-26T03:13:20;99180.72;;;4.33;93.60
75895;BME280;64573;50.328;15.014;2022-10-26T03:15:45;99185.06;;;4.34;93.40
75895;BME280;64573;50.328;15.014;2022-10-26T03:18:10;99178.22;;;4.22;93.21
75895;BME280;64573;50.328;15.014;2022-10-26T03:20:36;99173.84;;;4.11;93.85
75895;BME280;64573;50.328;15.014;2022-10-26T03:23:01;99181.09;;;4.00;93.87
75895;BME280;64573;50.328;15.014;2022-10-26T03:25:26;99184.28;;;4.03;93.84
75895;BME280;64573;50.328;15.014;2022-10-26T03:27:56;99176.06;;;4.06;93.33
75895;BME280;64573;50.328;15.014;2022-10-26T03:30:21;99176.19;;;4.05;93.80
75895;BME280;64573;50.328;15.014;2022-10-26T03:32:47;99180.34;;;3.98;93.80
75895;BME280;64573;50.328;15.014;2022-10-26T03:35:12;99171.84;;;4.04;93.45
75895;BME280;64573;50.328;15.014;2022-10-26T03:37:37;99179.75;;;4.25;93.16
75895;BME280;64573;50.328;15.014;2022-10-26T03:40:03;99177.53;;;4.30;93.59
75895;BME280;64573;50.328;15.014;2022-10-26T03:42:32;99177.25;;;4.33;93.28
75895;BME280;64573;50.328;15.014;2022-10-26T03:44:59;99179.78;;;4.63;93.63
75895;BME280;64573;50.328;15.014;2022-10-26T03:47:25;99174.66;;;4.81;93.71
75895;BME280;64573;50.328;15.014;2022-10-26T03:49:50;99179.00;;;4.73;93.41
75895;BME280;64573;50.328;15.014;2022-10-26T03:52:15;99183.13;;;4.36;93.48
75895;BME280;64573;50.328;15.014;2022-10-26T03:54:41;99177.38;;;4.22;93.35
75895;BME280;64573;50.328;15.014;2022-10-26T03:57:06;99185.56;;;4.09;93.48
75895;BME280;64573;50.328;15.014;2022-10-26T03:59:31;99179.16;;;4.11;93.46
75895;BME280;64573;50.328;15.014;2022-10-26T04:04:22;99193.94;;;3.74;93.67
75895;BME280;64573;50.328;15.014;2022-10-26T04:06:47;99197.22;;;3.56;93.25
75895;BME280;64573;50.328;15.014;2022-10-26T04:09:12;99198.78;;;3.38;93.80
75895;BME280;64573;50.328;15.014;2022-10-26T04:11:38;99192.84;;;3.25;93.64
75895;BME280;64573;50.328;15.014;2022-10-26T04:14:03;99199.06;;;3.14;93.52
75895;BME280;64573;50.328;15.014;2022-10-26T04:16:28;99194.59;;;3.15;93.74
75895;BME280;64573;50.328;15.014;2022-10-26T04:18:54;99203.00;;;3.20;93.79
75895;BME280;64573;50.328;15.014;2022-10-26T04:21:19;99197.06;;;3.27;93.63
75895;BME280;64573;50.328;15.014;2022-10-26T04:23:45;99194.66;;;3.24;93.59
75895;BME280;64573;50.328;15.014;2022-10-26T04:26:10;99197.81;;;3.18;93.73
75895;BME280;64573;50.328;15.014;2022-10-26T04:28:35;99195.09;;;3.09;93.57
75895;BME280;64573;50.328;15.014;2022-10-26T04:31:01;99195.22;;;3.07;93.31
75895;BME280;64573;50.328;15.014;2022-10-26T04:33:26;99194.72;;;3.13;93.85
75895;BME280;64573;50.328;15.014;2022-10-26T04:35:51;99195.47;;;3.04;93.83
75895;BME280;64573;50.328;15.014;2022-10-26T04:38:17;99187.78;;;3.01;93.73
75895;BME280;64573;50.328;15.014;2022-10-26T04:40:42;99185.19;;;3.11;93.48
75895;BME280;64573;50.328;15.014;2022-10-26T04:43:07;99189.09;;;3.27;93.62
75895;BME280;64573;50.328;15.014;2022-10-26T04:45:33;99198.66;;;3.40;93.73
75895;BME280;64573;50.328;15.014;2022-10-26T04:48:04;99198.75;;;3.59;93.58
75895;BME280;64573;50.328;15.014;2022-10-26T04:50:30;99198.25;;;3.44;93.82
75895;BME280;64573;50.328;15.014;2022-10-26T04:52:56;99207.69;;;3.16;93.53
75895;BME280;64573;50.328;15.014;2022-10-26T04:55:22;99207.56;;;3.39;93.77
75895;BME280;64573;50.328;15.014;2022-10-26T04:57:47;99198.03;;;3.26;93.99
75895;BME280;64573;50.328;15.014;2022-10-26T05:00:13;99208.16;;;3.42;93.89
75895;BME280;64573;50.328;15.014;2022-10-26T05:02:38;99195.13;;;3.60;93.33
75895;BME280;64573;50.328;15.014;2022-10-26T05:05:04;99201.34;;;4.10;93.60
75895;BME280;64573;50.328;15.014;2022-10-26T05:07:29;99211.75;;;4.33;93.90
75895;BME280;64573;50.328;15.014;2022-10-26T05:09:54;99217.59;;;4.17;93.59
75895;BME280;64573;50.328;15.014;2022-10-26T05:12:20;99210.66;;;4.35;93.90
75895;BME280;64573;50.328;15.014;2022-10-26T05:14:45;99206.66;;;4.51;93.99
75895;BME280;64573;50.328;15.014;2022-10-26T05:17:10;99203.31;;;4.68;93.70
75895;BME280;64573;50.328;15.014;2022-10-26T05:19:36;99207.44;;;4.41;93.58
75895;BME280;64573;50.328;15.014;2022-10-26T05:22:02;99204.44;;;4.75;93.75
75895;BME280;64573;50.328;15.014;2022-10-26T05:24:27;99213.78;;;4.69;93.64
75895;BME280;64573;50.328;15.014;2022-10-26T05:26:52;99207.22;;;4.74;93.66
75895;BME280;64573;50.328;15.014;2022-10-26T05:29:18;99206.94;;;4.57;93.74
75895;BME280;64573;50.328;15.014;2022-10-26T05:31:43;99213.09;;;4.58;93.91
75895;BME280;64573;50.328;15.014;2022-10-26T05:34:08;99216.47;;;4.79;93.92
75895;BME280;64573;50.328;15.014;2022-10-26T05:36:34;99224.28;;;5.19;93.88
75895;BME280;64573;50.328;15.014;2022-10-26T05:38:59;99223.44;;;5.19;93.88
75895;BME280;64573;50.328;15.014;2022-10-26T05:41:25;99224.44;;;5.08;93.95
75895;BME280;64573;50.328;15.014;2022-10-26T05:43:50;99226.81;;;4.92;93.56
75895;BME280;64573;50.328;15.014;2022-10-26T05:46:15;99228.38;;;4.94;93.90
75895;BME280;64573;50.328;15.014;2022-10-26T05:48:41;99241.25;;;5.09;93.66
75895;BME280;64573;50.328;15.014;2022-10-26T05:51:06;99245.84;;;5.07;93.81
75895;BME280;64573;50.328;15.014;2022-10-26T05:53:32;99249.47;;;5.06;93.72
75895;BME280;64573;50.328;15.014;2022-10-26T05:55:58;99246.69;;;4.88;93.68
75895;BME280;64573;50.328;15.014;2022-10-26T05:58:23;99238.66;;;4.59;93.83
75895;BME280;64573;50.328;15.014;2022-10-26T06:06:06;99240.66;;;4.95;94.17
75895;BME280;64573;50.328;15.014;2022-10-26T06:08:32;99246.69;;;5.07;93.75
75895;BME280;64573;50.328;15.014;2022-10-26T06:10:57;99239.84;;;4.95;93.90
75895;BME280;64573;50.328;15.014;2022-10-26T06:13:27;99248.34;;;4.89;93.76
75895;BME280;64573;50.328;15.014;2022-10-26T06:18:46;99242.34;;;5.25;93.73
75895;BME280;64573;50.328;15.014;2022-10-26T06:24:11;99247.22;;;5.59;93.78
75895;BME280;64573;50.328;15.014;2022-10-26T06:32:12;99252.63;;;5.87;93.80
75895;BME280;64573;50.328;15.014;2022-10-26T06:34:43;99265.09;;;5.96;93.60
75895;BME280;64573;50.328;15.014;2022-10-26T06:37:10;99255.91;;;6.08;93.58
75895;BME280;64573;50.328;15.014;2022-10-26T06:39:38;99265.34;;;6.30;93.78
75895;BME280;64573;50.328;15.014;2022-10-26T06:42:08;99256.03;;;6.44;93.77
75895;BME280;64573;50.328;15.014;2022-10-26T06:44:35;99269.56;;;6.60;93.53
75895;BME280;64573;50.328;15.014;2022-10-26T06:49:41;99266.41;;;6.92;93.78
75895;BME280;64573;50.328;15.014;2022-10-26T06:52:17;99263.59;;;6.94;93.76
75895;BME280;64573;50.328;15.014;2022-10-26T06:54:50;99268.25;;;7.09;93.61
75895;BME280;64573;50.328;15.014;2022-10-26T06:57:21;99264.53;;;7.20;93.33
75895;BME280;64573;50.328;15.014;2022-10-26T06:59:58;99275.81;;;7.32;93.02
75895;BME280;64573;50.328;15.014;2022-10-26T07:02:25;99285.63;;;7.31;93.47
75895;BME280;64573;50.328;15.014;2022-10-26T07:04:50;99279.22;;;7.24;93.31
75895;BME280;64573;50.328;15.014;2022-10-26T07:07:20;99283.81;;;7.32;93.05
75895;BME280;64573;50.328;15.014;2022-10-26T07:09:47;99284.88;;;7.39;93.44
75895;BME280;64573;50.328;15.014;2022-10-26T07:12:12;99291.13;;;7.47;93.01
75895;BME280;64573;50.328;15.014;2022-10-26T07:14:38;99284.69;;;7.58;93.09
75895;BME280;64573;50.328;15.014;2022-10-26T07:17:04;99282.94;;;7.67;92.55
75895;BME280;64573;50.328;15.014;2022-10-26T07:19:29;99280.91;;;7.61;92.85
75895;BME280;64573;50.328;15.014;2022-10-26T07:21:56;99281.22;;;7.84;92.83
75895;BME280;64573;50.328;15.014;2022-10-26T07:24:22;99288.41;;;7.83;92.75
75895;BME280;64573;50.328;15.014;2022-10-26T07:26:48;99295.31;;;7.94;92.17
75895;BME280;64573;50.328;15.014;2022-10-26T07:29:13;99295.31;;;8.46;92.10
75895;BME280;64573;50.328;15.014;2022-10-26T07:31:40;99282.97;;;8.53;91.72
75895;BME280;64573;50.328;15.014;2022-10-26T07:34:05;99295.91;;;8.74;91.62
75895;BME280;64573;50.328;15.014;2022-10-26T07:36:31;99301.88;;;9.10;90.74
75895;BME280;64573;50.328;15.014;2022-10-26T07:38:56;99297.34;;;9.02;90.79
75895;BME280;64573;50.328;15.014;2022-10-26T07:41:21;99296.66;;;8.92;90.43
75895;BME280;64573;50.328;15.014;2022-10-26T07:43:47;99300.75;;;9.13;89.52
75895;BME280;64573;50.328;15.014;2022-10-26T07:46:15;99301.91;;;9.18;89.51
75895;BME280;64573;50.328;15.014;2022-10-26T07:48:41;99309.25;;;9.16;89.40
75895;BME280;64573;50.328;15.014;2022-10-26T07:51:07;99311.31;;;9.38;89.25
75895;BME280;64573;50.328;15.014;2022-10-26T07:53:32;99312.50;;;9.60;88.54
75895;BME280;64573;50.328;15.014;2022-10-26T07:55:57;99316.16;;;9.67;88.29
75895;BME280;64573;50.328;15.014;2022-10-26T07:58:23;99318.34;;;9.72;87.58
75895;BME280;64573;50.328;15.014;2022-10-26T08:00:51;99324.19;;;9.76;86.90
75895;BME280;64573;50.328;15.014;2022-10-26T08:03:17;99317.84;;;10.01;86.89
75895;BME280;64573;50.328;15.014;2022-10-26T08:05:47;99321.53;;;10.00;86.38
75895;BME280;64573;50.328;15.014;2022-10-26T08:08:18;99317.47;;;10.20;86.31
75895;BME280;64573;50.328;15.014;2022-10-26T08:10:44;99321.97;;;10.20;86.02
75895;BME280;64573;50.328;15.014;2022-10-26T08:13:10;99330.78;;;10.61;85.68
75895;BME280;64573;50.328;15.014;2022-10-26T08:15:36;99319.25;;;10.92;85.02
75895;BME280;64573;50.328;15.014;2022-10-26T08:18:02;99324.63;;;10.92;83.67
75895;BME280;64573;50.328;15.014;2022-10-26T08:20:27;99329.47;;;11.81;81.94
75895;BME280;64573;50.328;15.014;2022-10-26T08:22:55;99326.34;;;11.93;80.81
75895;BME280;64573;50.328;15.014;2022-10-26T08:25:21;99321.44;;;11.73;79.17
75895;BME280;64573;50.328;15.014;2022-10-26T08:27:46;99322.09;;;11.98;80.13
75895;BME280;64573;50.328;15.014;2022-10-26T08:30:12;99325.16;;;11.95;78.73
75895;BME280;64573;50.328;15.014;2022-10-26T08:32:37;99318.63;;;12.42;77.25
75895;BME280;64573;50.328;15.014;2022-10-26T08:35:02;99318.53;;;12.21;78.23
75895;BME280;64573;50.328;15.014;2022-10-26T08:37:28;99329.91;;;13.26;75.71
75895;BME280;64573;50.328;15.014;2022-10-26T08:39:53;99314.72;;;13.04;74.09
75895;BME280;64573;50.328;15.014;2022-10-26T08:42:26;99320.47;;;13.01;75.54
75895;BME280;64573;50.328;15.014;2022-10-26T08:45:00;99322.03;;;13.67;71.33
75895;BME280;64573;50.328;15.014;2022-10-26T08:47:30;99319.25;;;14.03;72.55
75895;BME280;64573;50.328;15.014;2022-10-26T08:50:02;99321.06;;;14.24;69.73
75895;BME280;64573;50.328;15.014;2022-10-26T08:52:46;99320.97;;;13.62;70.46
75895;BME280;64573;50.328;15.014;2022-10-26T08:55:17;99322.75;;;14.53;68.46
75895;BME280;64573;50.328;15.014;2022-10-26T08:57:45;99323.50;;;14.75;68.28
75895;BME280;64573;50.328;15.014;2022-10-26T09:00:17;99320.63;;;15.31;67.27
75895;BME280;64573;50.328;15.014;2022-10-26T09:02:44;99325.22;;;15.37;64.88
75895;BME280;64573;50.328;15.014;2022-10-26T09:26:39;99333.34;;;17.03;60.50
75895;BME280;64573;50.328;15.014;2022-10-26T09:29:11;99332.19;;;17.62;58.77
75895;BME280;64573;50.328;15.014;2022-10-26T09:34:05;99330.91;;;17.71;57.87
75895;BME280;64573;50.328;15.014;2022-10-26T09:36:32;99334.13;;;17.86;57.20
75895;BME280;64573;50.328;15.014;2022-10-26T09:39:11;99326.72;;;18.50;56.42
75895;BME280;64573;50.328;15.014;2022-10-26T09:49:10;99334.88;;;18.50;55.46
75895;BME280;64573;50.328;15.014;2022-10-26T09:51:38;99320.72;;;18.66;54.16
75895;BME280;64573;50.328;15.014;2022-10-26T09:56:44;99341.66;;;17.01;58.34
75895;BME280;64573;50.328;15.014;2022-10-26T09:59:12;99345.13;;;18.23;56.55
75895;BME280;64573;50.328;15.014;2022-10-26T10:01:39;99345.56;;;18.45;56.12
75895;BME280;64573;50.328;15.014;2022-10-26T10:09:27;99349.78;;;18.16;54.91
75895;BME280;64573;50.328;15.014;2022-10-26T10:14:18;99346.06;;;19.34;51.57
75895;BME280;64573;50.328;15.014;2022-10-26T10:21:47;99340.22;;;19.67;50.15
75895;BME280;64573;50.328;15.014;2022-10-26T10:29:28;99348.94;;;17.90;57.50
75895;BME280;64573;50.328;15.014;2022-10-26T10:31:56;99339.19;;;18.08;55.18
75895;BME280;64573;50.328;15.014;2022-10-26T10:34:21;99343.28;;;18.67;53.99
75895;BME280;64573;50.328;15.014;2022-10-26T10:39:38;99334.59;;;19.32;50.71
75895;BME280;64573;50.328;15.014;2022-10-26T10:47:19;99335.22;;;17.47;55.46
75895;BME280;64573;50.328;15.014;2022-10-26T10:54:46;99336.28;;;17.40;56.85
75895;BME280;64573;50.328;15.014;2022-10-26T11:02:33;99331.50;;;17.35;57.19
75895;BME280;64573;50.328;15.014;2022-10-26T11:10:02;99321.78;;;16.36;59.02
75895;BME280;64573;50.328;15.014;2022-10-26T11:12:31;99325.13;;;16.38;60.24
75895;BME280;64573;50.328;15.014;2022-10-26T11:15:06;99318.00;;;16.57;58.32
75895;BME280;64573;50.328;15.014;2022-10-26T11:17:49;99322.88;;;17.06;58.22
75895;BME280;64573;50.328;15.014;2022-10-26T11:20:20;99307.59;;;16.74;58.15
75895;BME280;64573;50.328;15.014;2022-10-26T11:23:09;99330.47;;;16.78;58.02
75895;BME280;64573;50.328;15.014;2022-10-26T11:38:16;99336.59;;;17.18;57.04
75895;BME280;64573;50.328;15.014;2022-10-26T11:43:34;99333.94;;;17.50;57.48
75895;BME280;64573;50.328;15.014;2022-10-26T11:48:57;99329.03;;;17.33;58.87
75895;BME280;64573;50.328;15.014;2022-10-26T11:53:57;99328.00;;;17.28;57.62
75895;BME280;64573;50.328;15.014;2022-10-26T11:56:43;99328.19;;;16.81;59.21
75895;BME280;64573;50.328;15.014;2022-10-26T11:59:17;99316.75;;;16.60;59.17
75895;BME280;64573;50.328;15.014;2022-10-26T12:01:46;99305.50;;;16.56;59.45
75895;BME280;64573;50.328;15.014;2022-10-26T12:04:12;99303.69;;;15.77;61.33
75895;BME280;64573;50.328;15.014;2022-10-26T12:06:38;99298.50;;;15.01;65.04
75895;BME280;64573;50.328;15.014;2022-10-26T12:09:05;99299.56;;;15.13;63.94
75895;BME280;64573;50.328;15.014;2022-10-26T12:14:16;99291.78;;;15.52;63.30
75895;BME280;64573;50.328;15.014;2022-10-26T12:22:15;99295.75;;;16.48;61.71
75895;BME280;64573;50.328;15.014;2022-10-26T12:24:46;99296.78;;;17.50;56.98
75895;BME280;64573;50.328;15.014;2022-10-26T12:27:48;99308.91;;;18.11;55.25
75895;BME280;64573;50.328;15.014;2022-10-26T12:37:48;99340.13;;;19.73;49.36
75895;BME280;64573;50.328;15.014;2022-10-26T12:42:49;99351.69;;;20.10;48.82
75895;BME280;64573;50.328;15.014;2022-10-26T13:11:05;99322.44;;;19.34;53.04
75895;BME280;64573;50.328;15.014;2022-10-26T13:13:32;99325.16;;;19.94;51.05
75895;BME280;64573;50.328;15.014;2022-10-26T13:15:59;99334.03;;;20.01;50.34
75895;BME280;64573;50.328;15.014;2022-10-26T13:18:26;99324.13;;;20.07;48.95
75895;BME280;64573;50.328;15.014;2022-10-26T13:31:04;99325.03;;;18.06;56.21
75895;BME280;64573;50.328;15.014;2022-10-26T13:33:40;99327.38;;;18.45;55.44
75895;BME280;64573;50.328;15.014;2022-10-26T13:49:10;99340.19;;;21.14;47.94
75895;BME280;64573;50.328;15.014;2022-10-26T13:59:24;99339.06;;;18.89;52.96
75895;BME280;64573;50.328;15.014;2022-10-26T14:04:26;99330.22;;;17.82;55.64
75895;BME280;64573;50.328;15.014;2022-10-26T14:06:52;99313.06;;;17.50;56.57
75895;BME280;64573;50.328;15.014;2022-10-26T14:09:19;99341.78;;;17.26;57.63
75895;BME280;64573;50.328;15.014;2022-10-26T14:14:20;99332.09;;;16.99;59.21
75895;BME280;64573;50.328;15.014;2022-10-26T14:16:48;99338.19;;;16.88;59.58
75895;BME280;64573;50.328;15.014;2022-10-26T14:19:25;99343.38;;;16.89;59.55
75895;BME280;64573;50.328;15.014;2022-10-26T14:21:51;99345.06;;;16.77;59.33
75895;BME280;64573;50.328;15.014;2022-10-26T14:24:34;99339.25;;;16.73;60.29
75895;BME280;64573;50.328;15.014;2022-10-26T14:27:01;99337.97;;;16.63;60.22
75895;BME280;64573;50.328;15.014;2022-10-26T14:29:31;99333.41;;;16.50;60.44
75895;BME280;64573;50.328;15.014;2022-10-26T14:31:56;99338.22;;;16.28;61.46
75895;BME280;64573;50.328;15.014;2022-10-26T14:36:49;99341.34;;;15.98;62.56
75895;BME280;64573;50.328;15.014;2022-10-26T14:41:45;99335.31;;;15.77;63.65
75895;BME280;64573;50.328;15.014;2022-10-26T14:44:17;99343.84;;;15.80;64.37
75895;BME280;64573;50.328;15.014;2022-10-26T14:46:44;99349.88;;;15.76;64.69
75895;BME280;64573;50.328;15.014;2022-10-26T14:49:23;99356.31;;;15.68;64.75
75895;BME280;64573;50.328;15.014;2022-10-26T14:52:04;99351.72;;;15.68;65.59
75895;BME280;64573;50.328;15.014;2022-10-26T14:54:30;99357.75;;;15.64;65.78
75895;BME280;64573;50.328;15.014;2022-10-26T14:56:58;99353.31;;;15.56;65.51
75895;BME280;64573;50.328;15.014;2022-10-26T14:59:28;99363.94;;;15.51;66.05
75895;BME280;64573;50.328;15.014;2022-10-26T15:02:10;99359.16;;;15.53;66.87
75895;BME280;64573;50.328;15.014;2022-10-26T15:04:41;99354.75;;;15.39;65.76
75895;BME280;64573;50.328;15.014;2022-10-26T15:07:20;99358.69;;;15.36;66.45
75895;BME280;64573;50.328;15.014;2022-10-26T15:09:50;99359.06;;;15.27;67.06
75895;BME280;64573;50.328;15.014;2022-10-26T15:14:52;99363.16;;;15.09;67.63
75895;BME280;64573;50.328;15.014;2022-10-26T15:17:23;99362.69;;;14.99;68.45
75895;BME280;64573;50.328;15.014;2022-10-26T15:19:51;99374.28;;;14.93;69.44
75895;BME280;64573;50.328;15.014;2022-10-26T15:22:23;99362.53;;;14.73;70.18
75895;BME280;64573;50.328;15.014;2022-10-26T15:24:55;99375.53;;;14.62;70.72
75895;BME280;64573;50.328;15.014;2022-10-26T15:29:49;99347.22;;;14.24;70.81
75895;BME280;64573;50.328;15.014;2022-10-26T15:32:26;99377.72;;;14.24;71.50
75895;BME280;64573;50.328;15.014;2022-10-26T15:35:25;99378.69;;;14.17;72.01
75895;BME280;64573;50.328;15.014;2022-10-26T15:37:53;99377.53;;;14.04;72.37
75895;BME280;64573;50.328;15.014;2022-10-26T15:40:19;99373.13;;;13.97;72.27
75895;BME280;64573;50.328;15.014;2022-10-26T15:42:50;99386.31;;;13.85;73.30
75895;BME280;64573;50.328;15.014;2022-10-26T15:47:42;99386.41;;;13.56;73.64
75895;BME280;64573;50.328;15.014;2022-10-26T15:50:18;99384.94;;;13.38;73.67
75895;BME280;64573;50.328;15.014;2022-10-26T15:52:44;99390.44;;;13.15;75.81
75895;BME280;64573;50.328;15.014;2022-10-26T15:55:10;99394.91;;;13.08;75.92
75895;BME280;64573;50.328;15.014;2022-10-26T15:57:36;99399.19;;;13.03;75.78
75895;BME280;64573;50.328;15.014;2022-10-26T16:00:03;99393.78;;;13.03;75.36
75895;BME280;64573;50.328;15.014;2022-10-26T16:02:29;99393.53;;;12.97;76.54
75895;BME280;64573;50.328;15.014;2022-10-26T16:04:54;99401.13;;;12.94;76.43
75895;BME280;64573;50.328;15.014;2022-10-26T16:07:23;99402.34;;;12.91;77.07
75895;BME280;64573;50.328;15.014;2022-10-26T16:09:50;99392.97;;;12.87;77.35
75895;BME280;64573;50.328;15.014;2022-10-26T16:12:15;99396.03;;;12.84;77.70
75895;BME280;64573;50.328;15.014;2022-10-26T16:14:40;99392.97;;;12.73;78.73
75895;BME280;64573;50.328;15.014;2022-10-26T16:17:06;99397.59;;;12.64;79.21
75895;BME280;64573;50.328;15.014;2022-10-26T16:19:33;99387.56;;;12.58;78.66
75895;BME280;64573;50.328;15.014;2022-10-26T16:21:59;99398.78;;;12.47;78.47
75895;BME280;64573;50.328;15.014;2022-10-26T16:24:26;99407.09;;;12.37;79.20
75895;BME280;64573;50.328;15.014;2022-10-26T16:26:52;99413.78;;;12.26;79.84
75895;BME280;64573;50.328;15.014;2022-10-26T16:29:17;99413.34;;;12.14;80.88
75895;BME280;64573;50.328;15.014;2022-10-26T16:31:44;99405.34;;;12.06;81.31
75895;BME280;64573;50.328;15.014;2022-10-26T16:34:09;99405.88;;;12.02;81.50
75895;BME280;64573;50.328;15.014;2022-10-26T16:39:04;99399.28;;;11.90;81.66
75895;BME280;64573;50.328;15.014;2022-10-26T16:41:30;99402.16;;;11.80;81.68
75895;BME280;64573;50.328;15.014;2022-10-26T16:43:58;99405.22;;;11.77;82.05
75895;BME280;64573;50.328;15.014;2022-10-26T16:46:24;99404.38;;;11.76;81.70
75895;BME280;64573;50.328;15.014;2022-10-26T16:51:23;99416.31;;;11.74;82.09
75895;BME280;64573;50.328;15.014;2022-10-26T16:58:48;99420.69;;;11.75;82.17
75895;BME280;64573;50.328;15.014;2022-10-26T17:06:06;99435.13;;;11.74;81.84
75895;BME280;64573;50.328;15.014;2022-10-26T17:08:33;99437.84;;;11.66;82.40
75895;BME280;64573;50.328;15.014;2022-10-26T17:13:35;99447.53;;;11.52;82.92
75895;BME280;64573;50.328;15.014;2022-10-26T17:16:02;99446.03;;;11.41;83.46
75895;BME280;64573;50.328;15.014;2022-10-26T17:18:28;99445.91;;;11.35;83.84
75895;BME280;64573;50.328;15.014;2022-10-26T17:23:23;99453.97;;;11.35;83.89
75895;BME280;64573;50.328;15.014;2022-10-26T17:25:49;99453.25;;;11.41;83.63